Time;durP1;ratioP1;P1;durP2;ratioP2;P2;SDS_P1;SDS_P2;PMS_P1;PMS_P2;Temp;Humidity;BMP_temperature;BMP_pressure;BME280_temperature;BME280_humidity;BME280_pressure;Samples;Min_cycle;Max_cycle;Signal;HPM_P1;HPM_P2
2022/01/18 00:02:07;;;;;;;6.97;2.90;;;;;;;;;;5038827;28;20287;-64
2022/01/18 00:04:36;;;;;;;6.43;2.70;;;;;;;;;;5027025;28;20655;-64
2022/01/18 00:07:08;;;;;;;5.43;2.20;;;;;;;;;;5027449;28;20230;-64
2022/01/18 00:09:41;;;;;;;7.20;2.70;;;;;;;;;;5024378;28;20280;-64
2022/01/18 00:20:51;;;;;;;9.60;3.07;;;;;;;;;;5026810;28;20362;-64
2022/01/18 00:23:42;;;;;;;6.40;2.63;;;;;;;;;;5023167;28;20234;-64
2022/01/18 00:26:13;;;;;;;7.90;2.63;;;;;;;;;;5032574;28;20797;-64
2022/01/18 00:28:52;;;;;;;6.80;2.70;;;;;;;;;;5015990;28;20230;-64
2022/01/18 00:31:42;;;;;;;7.70;2.77;;;;;;;;;;5022708;28;20214;-64
2022/01/18 00:34:32;;;;;;;6.80;3.30;;;;;;;;;;5026965;28;20200;-64
2022/01/18 00:39:42;;;;;;;4.90;2.70;;;;;;;;;;5021666;28;20191;-64
2022/01/18 00:42:13;;;;;;;6.70;2.77;;;;;;;;;;5032296;28;20198;-64
2022/01/18 00:44:43;;;;;;;5.30;2.50;;;;;;;;;;5029059;28;20199;-64
2022/01/18 00:47:14;;;;;;;6.53;2.50;;;;;;;;;;5028580;28;20653;-64
2022/01/18 00:49:48;;;;;;;5.30;2.63;;;;;;;;;;5022435;28;20437;-64
2022/01/18 00:52:19;;;;;;;8.33;3.63;;;;;;;;;;5010284;28;20213;-64
2022/01/18 00:54:48;;;;;;;5.00;2.30;;;;;;;;;;5012177;28;20206;-64
2022/01/18 00:57:20;;;;;;;5.87;2.80;;;;;;;;;;5033750;28;20210;-64
2022/01/18 00:59:53;;;;;;;5.47;2.70;;;;;;;;;;5029223;28;20198;-64
2022/01/18 01:02:25;;;;;;;5.73;2.80;;;;;;;;;;5022518;28;20238;-64
2022/01/18 01:04:53;;;;;;;4.87;2.60;;;;;;;;;;5003752;28;20234;-64
2022/01/18 01:07:24;;;;;;;6.03;3.23;;;;;;;;;;5024952;28;20269;-64
2022/01/18 01:09:57;;;;;;;5.90;2.30;;;;;;;;;;5025204;28;20699;-64
2022/01/18 01:12:26;;;;;;;6.67;2.83;;;;;;;;;;5030515;28;20201;-64
2022/01/18 01:15:03;;;;;;;7.07;2.57;;;;;;;;;;5029042;28;20198;-64
2022/01/18 01:17:54;;;;;;;7.30;3.03;;;;;;;;;;5006414;28;20218;-64
2022/01/18 01:34:44;;;;;;;5.33;2.60;;;;;;;;;;5033170;28;20198;-63
2022/01/18 01:45:40;;;;;;;6.30;2.37;;;;;;;;;;5010178;28;20190;-63
2022/01/18 01:48:11;;;;;;;6.13;3.40;;;;;;;;;;5034182;28;20576;-63
2022/01/18 01:50:44;;;;;;;5.13;2.27;;;;;;;;;;5031545;28;20218;-63
2022/01/18 01:53:13;;;;;;;5.20;2.10;;;;;;;;;;5039781;28;20194;-64
2022/01/18 01:55:44;;;;;;;6.50;2.77;;;;;;;;;;5004510;28;20295;-64
2022/01/18 01:58:18;;;;;;;6.13;2.37;;;;;;;;;;5013401;28;20198;-64
2022/01/18 02:00:53;;;;;;;5.67;2.80;;;;;;;;;;5043431;28;20210;-64
2022/01/18 02:03:27;;;;;;;4.77;2.57;;;;;;;;;;5029296;28;20225;-64
2022/01/18 02:05:57;;;;;;;4.80;2.30;;;;;;;;;;5009035;28;20219;-64
2022/01/18 02:08:33;;;;;;;5.73;2.43;;;;;;;;;;5044251;28;20203;-64
2022/01/18 02:11:17;;;;;;;5.20;2.40;;;;;;;;;;5028842;28;20254;-64
2022/01/18 02:13:51;;;;;;;6.57;2.43;;;;;;;;;;5039555;28;20231;-64
2022/01/18 02:22:03;;;;;;;5.27;2.67;;;;;;;;;;5027752;28;20256;-64
2022/01/18 02:24:36;;;;;;;5.63;2.60;;;;;;;;;;5041290;28;20231;-64
2022/01/18 02:27:05;;;;;;;4.87;2.47;;;;;;;;;;5031072;28;20192;-64
2022/01/18 02:29:35;;;;;;;5.73;2.30;;;;;;;;;;5028459;28;20206;-64
2022/01/18 02:32:03;;;;;;;5.00;2.10;;;;;;;;;;5030241;28;20203;-64
2022/01/18 02:34:36;;;;;;;5.33;2.30;;;;;;;;;;5028294;28;20195;-64
2022/01/18 02:37:07;;;;;;;5.10;2.40;;;;;;;;;;5029864;28;20248;-64
2022/01/18 02:39:42;;;;;;;4.60;2.20;;;;;;;;;;5026353;28;20222;-64
2022/01/18 02:42:16;;;;;;;7.83;2.90;;;;;;;;;;5027624;28;20664;-64
2022/01/18 02:44:46;;;;;;;5.77;2.47;;;;;;;;;;5028706;28;20213;-64
2022/01/18 02:47:18;;;;;;;4.53;2.07;;;;;;;;;;5026694;28;20261;-64
2022/01/18 02:49:54;;;;;;;4.97;2.57;;;;;;;;;;5009262;28;20238;-64
2022/01/18 02:52:29;;;;;;;5.43;2.77;;;;;;;;;;5032963;28;20533;-64
2022/01/18 02:54:57;;;;;;;5.27;2.50;;;;;;;;;;5027350;28;20277;-65
2022/01/18 02:57:57;;;;;;;6.00;2.53;;;;;;;;;;5026315;28;20195;-65
2022/01/18 03:03:12;;;;;;;4.80;2.50;;;;;;;;;;5037254;28;20295;-64
2022/01/18 03:03:38;;;;;;;6.97;2.90;;;;;;;;;;5001066;28;20241;-64
2022/01/18 03:06:12;;;;;;;5.20;2.90;;;;;;;;;;5027309;28;20214;-64
2022/01/18 03:08:41;;;;;;;5.63;2.57;;;;;;;;;;5028936;28;20252;-64
2022/01/18 03:11:12;;;;;;;5.73;2.33;;;;;;;;;;5028762;28;20265;-64
2022/01/18 03:13:44;;;;;;;4.30;2.20;;;;;;;;;;5024144;28;20480;-64
2022/01/18 03:16:14;;;;;;;5.43;2.53;;;;;;;;;;5027668;28;20207;-64
2022/01/18 03:18:47;;;;;;;4.67;2.63;;;;;;;;;;5024781;28;20211;-64
2022/01/18 03:21:16;;;;;;;7.73;3.10;;;;;;;;;;5029681;28;20750;-64
2022/01/18 03:23:53;;;;;;;5.10;2.30;;;;;;;;;;5002400;28;20238;-64
2022/01/18 03:26:33;;;;;;;5.13;2.30;;;;;;;;;;5007460;28;20532;-64
2022/01/18 03:29:03;;;;;;;6.43;2.30;;;;;;;;;;5005836;28;20233;-64
2022/01/18 03:31:34;;;;;;;5.37;2.33;;;;;;;;;;5003084;28;20314;-64
2022/01/18 03:34:08;;;;;;;4.20;2.10;;;;;;;;;;5007780;28;20314;-64
2022/01/18 03:36:35;;;;;;;5.27;2.10;;;;;;;;;;5008195;28;20199;-64
2022/01/18 03:39:05;;;;;;;7.27;2.87;;;;;;;;;;5008034;28;20210;-64
2022/01/18 03:41:35;;;;;;;6.03;3.10;;;;;;;;;;5003032;28;20207;-64
2022/01/18 03:44:06;;;;;;;4.03;2.07;;;;;;;;;;5005369;28;20212;-64
2022/01/18 03:46:36;;;;;;;4.37;2.27;;;;;;;;;;4992922;28;20203;-64
2022/01/18 03:49:07;;;;;;;6.00;2.80;;;;;;;;;;5030098;28;20207;-64
2022/01/18 03:51:39;;;;;;;5.13;2.33;;;;;;;;;;5003637;28;20219;-64
2022/01/18 03:54:13;;;;;;;6.90;2.20;;;;;;;;;;5007150;28;20704;-64
2022/01/18 03:56:44;;;;;;;5.13;2.87;;;;;;;;;;5003252;28;20195;-64
2022/01/18 03:59:16;;;;;;;7.27;2.57;;;;;;;;;;5006353;28;20537;-64
2022/01/18 04:01:47;;;;;;;5.73;2.20;;;;;;;;;;5000146;28;20705;-64
2022/01/18 04:04:19;;;;;;;5.43;2.20;;;;;;;;;;5006784;28;20564;-64
2022/01/18 04:06:51;;;;;;;5.30;2.67;;;;;;;;;;5009188;28;20625;-64
2022/01/18 04:09:23;;;;;;;3.63;1.87;;;;;;;;;;5010183;28;20223;-64
2022/01/18 04:11:55;;;;;;;6.80;2.20;;;;;;;;;;5010937;28;20781;-64
2022/01/18 04:14:27;;;;;;;3.80;1.90;;;;;;;;;;4999911;28;20254;-64
2022/01/18 04:28:25;;;;;;;5.33;2.47;;;;;;;;;;5025369;28;20207;-64
2022/01/18 04:31:01;;;;;;;4.97;2.77;;;;;;;;;;5026665;28;20273;-64
2022/01/18 04:33:32;;;;;;;5.00;2.03;;;;;;;;;;5023738;28;20203;-64
2022/01/18 04:36:12;;;;;;;3.67;1.83;;;;;;;;;;5030037;28;20842;-64
2022/01/18 04:38:42;;;;;;;6.97;2.67;;;;;;;;;;5032965;28;20201;-64
2022/01/18 04:41:17;;;;;;;5.70;2.57;;;;;;;;;;5027639;28;20191;-64
2022/01/18 04:49:17;;;;;;;6.20;2.33;;;;;;;;;;5027190;28;20199;-64
2022/01/18 04:51:49;;;;;;;5.50;2.30;;;;;;;;;;5024171;28;20249;-64
2022/01/18 04:54:22;;;;;;;5.73;2.43;;;;;;;;;;5028233;28;20582;-64
2022/01/18 04:59:19;;;;;;;4.20;2.20;;;;;;;;;;5026259;28;20187;-64
2022/01/18 05:01:51;;;;;;;3.80;2.00;;;;;;;;;;5008048;28;20203;-64
2022/01/18 05:04:24;;;;;;;3.03;2.13;;;;;;;;;;5025792;28;20623;-64
2022/01/18 05:07:01;;;;;;;3.97;2.27;;;;;;;;;;5023396;28;20238;-63
2022/01/18 05:09:31;;;;;;;4.77;2.13;;;;;;;;;;5029170;28;20269;-64
2022/01/18 05:12:10;;;;;;;4.77;2.50;;;;;;;;;;5024930;28;20221;-64
2022/01/18 05:14:42;;;;;;;5.07;2.63;;;;;;;;;;5027798;28;20307;-64
2022/01/18 05:20:36;;;;;;;7.83;2.30;;;;;;;;;;5040966;28;20716;-63
2022/01/18 05:23:02;;;;;;;3.97;2.23;;;;;;;;;;5012934;28;20648;-64
2022/01/18 05:25:38;;;;;;;7.63;2.77;;;;;;;;;;5021577;28;20246;-64
2022/01/18 05:28:08;;;;;;;4.03;2.20;;;;;;;;;;5025536;28;20211;-64
2022/01/18 05:30:40;;;;;;;5.10;2.00;;;;;;;;;;5023937;28;20253;-64
2022/01/18 05:33:11;;;;;;;4.83;2.13;;;;;;;;;;5020679;28;20206;-64
2022/01/18 05:35:43;;;;;;;5.03;2.83;;;;;;;;;;5005642;28;20199;-64
2022/01/18 05:38:19;;;;;;;7.50;3.27;;;;;;;;;;5011034;28;20238;-64
2022/01/18 05:40:50;;;;;;;5.83;2.83;;;;;;;;;;5034293;28;20194;-64
2022/01/18 05:43:21;;;;;;;6.27;2.50;;;;;;;;;;5022232;28;20223;-66
2022/01/18 05:45:53;;;;;;;10.03;2.77;;;;;;;;;;5023260;28;20299;-64
2022/01/18 05:48:24;;;;;;;12.93;3.00;;;;;;;;;;5037701;28;20286;-64
2022/01/18 05:50:59;;;;;;;14.90;2.90;;;;;;;;;;5025071;28;20555;-64
2022/01/18 05:53:39;;;;;;;8.73;3.30;;;;;;;;;;5020863;28;20221;-64
2022/01/18 05:56:18;;;;;;;7.07;2.97;;;;;;;;;;5049283;28;20214;-64
2022/01/18 05:58:51;;;;;;;9.90;3.37;;;;;;;;;;5026530;28;20199;-64
2022/01/18 06:01:38;;;;;;;7.20;2.93;;;;;;;;;;5028862;28;20742;-65
2022/01/18 06:04:18;;;;;;;7.47;2.60;;;;;;;;;;5022359;28;20222;-63
2022/01/18 06:06:53;;;;;;;7.50;3.37;;;;;;;;;;5036259;28;20554;-64
2022/01/18 06:09:35;;;;;;;7.93;3.13;;;;;;;;;;5017097;28;20262;-65
2022/01/18 06:12:04;;;;;;;10.20;3.47;;;;;;;;;;5025247;28;20648;-65
2022/01/18 06:14:34;;;;;;;8.80;2.77;;;;;;;;;;5024798;28;20208;-65
2022/01/18 06:17:07;;;;;;;6.33;3.13;;;;;;;;;;5031270;28;20261;-65
2022/01/18 06:19:44;;;;;;;8.13;3.00;;;;;;;;;;5022527;28;20230;-65
2022/01/18 06:22:20;;;;;;;10.27;3.43;;;;;;;;;;5031792;28;20299;-64
2022/01/18 06:24:50;;;;;;;7.27;2.73;;;;;;;;;;5016780;28;20444;-64
2022/01/18 06:27:21;;;;;;;7.53;3.27;;;;;;;;;;5013194;28;20211;-64
2022/01/18 06:29:49;;;;;;;6.93;3.47;;;;;;;;;;5001939;28;20394;-64
2022/01/18 06:32:21;;;;;;;8.40;3.20;;;;;;;;;;5011839;28;20275;-64
2022/01/18 06:34:53;;;;;;;7.10;2.97;;;;;;;;;;5008830;28;20207;-64
2022/01/18 06:37:25;;;;;;;7.07;3.43;;;;;;;;;;5007535;28;20203;-64
2022/01/18 06:40:02;;;;;;;8.03;3.00;;;;;;;;;;5009010;28;20191;-64
2022/01/18 06:42:33;;;;;;;7.03;3.20;;;;;;;;;;5004814;28;20575;-64
2022/01/18 06:45:05;;;;;;;9.40;3.43;;;;;;;;;;5007262;28;20199;-64
2022/01/18 06:47:39;;;;;;;7.90;3.10;;;;;;;;;;5005104;28;20591;-64
2022/01/18 06:50:07;;;;;;;8.43;3.00;;;;;;;;;;5007770;28;20206;-64
2022/01/18 06:52:41;;;;;;;9.13;3.23;;;;;;;;;;5007592;28;20665;-64
2022/01/18 06:55:09;;;;;;;5.77;2.90;;;;;;;;;;4988956;28;20254;-64
2022/01/18 06:57:41;;;;;;;5.10;2.97;;;;;;;;;;5005394;28;20191;-64
2022/01/18 07:00:13;;;;;;;6.73;2.70;;;;;;;;;;5008414;28;20545;-64
2022/01/18 07:02:45;;;;;;;9.60;4.10;;;;;;;;;;5007516;28;20204;-64
2022/01/18 07:05:13;;;;;;;7.70;3.20;;;;;;;;;;5006440;28;20313;-64
2022/01/18 07:07:47;;;;;;;6.37;3.10;;;;;;;;;;5001283;28;20566;-64
2022/01/18 07:10:16;;;;;;;7.80;3.47;;;;;;;;;;5006462;28;20203;-64
2022/01/18 07:12:46;;;;;;;7.70;3.70;;;;;;;;;;5006946;28;20239;-64
2022/01/18 07:15:26;;;;;;;5.80;2.87;;;;;;;;;;4999157;28;20257;-64
2022/01/18 07:17:59;;;;;;;8.43;3.43;;;;;;;;;;5004823;28;20242;-64
2022/01/18 07:21:04;;;;;;;8.00;3.20;;;;;;;;;;5005922;28;20278;-64
2022/01/18 07:23:36;;;;;;;8.23;2.87;;;;;;;;;;5005618;28;20206;-63
2022/01/18 07:26:15;;;;;;;6.17;2.80;;;;;;;;;;5003434;28;20194;-64
2022/01/18 07:28:50;;;;;;;7.93;3.53;;;;;;;;;;5020289;28;20202;-64
2022/01/18 07:31:21;;;;;;;8.10;3.30;;;;;;;;;;5021351;28;20239;-64
2022/01/18 07:33:52;;;;;;;9.23;3.30;;;;;;;;;;5020008;28;20206;-64
2022/01/18 07:36:20;;;;;;;11.00;3.77;;;;;;;;;;5035402;28;20218;-64
2022/01/18 07:38:55;;;;;;;10.20;3.87;;;;;;;;;;5023553;28;20633;-64
2022/01/18 07:41:25;;;;;;;8.87;3.10;;;;;;;;;;5033766;28;21229;-64
2022/01/18 07:43:58;;;;;;;7.57;3.57;;;;;;;;;;5026422;28;20584;-65
2022/01/18 07:46:29;;;;;;;9.57;3.60;;;;;;;;;;5033300;28;20276;-64
2022/01/18 07:49:03;;;;;;;7.93;3.47;;;;;;;;;;5027821;28;20262;-64
2022/01/18 07:51:47;;;;;;;9.07;3.77;;;;;;;;;;5009407;28;20238;-65
2022/01/18 07:54:19;;;;;;;10.97;3.70;;;;;;;;;;5019880;28;20218;-65
2022/01/18 07:56:51;;;;;;;7.60;3.73;;;;;;;;;;5026062;28;20191;-64
2022/01/18 07:59:20;;;;;;;12.07;3.73;;;;;;;;;;5026376;28;20222;-64
2022/01/18 08:01:52;;;;;;;10.93;4.60;;;;;;;;;;5026706;28;20199;-65
2022/01/18 08:04:25;;;;;;;10.57;4.57;;;;;;;;;;5024023;28;20257;-64
2022/01/18 08:06:56;;;;;;;10.63;4.20;;;;;;;;;;5024916;28;20218;-64
2022/01/18 08:09:24;;;;;;;11.80;4.70;;;;;;;;;;5016688;28;20642;-65
2022/01/18 08:11:53;;;;;;;13.17;4.70;;;;;;;;;;5022545;28;20707;-63
2022/01/18 08:14:29;;;;;;;14.70;5.97;;;;;;;;;;5020460;28;20713;-64
2022/01/18 08:17:05;;;;;;;33.90;8.50;;;;;;;;;;5022309;28;20195;-63
2022/01/18 08:19:36;;;;;;;41.37;11.63;;;;;;;;;;5019187;28;20528;-63
2022/01/18 08:22:10;;;;;;;36.67;11.13;;;;;;;;;;5007570;28;20207;-66
2022/01/18 08:24:38;;;;;;;38.97;11.47;;;;;;;;;;5016669;28;20235;-65
2022/01/18 08:27:10;;;;;;;36.00;11.33;;;;;;;;;;5008514;28;20199;-65
2022/01/18 08:29:52;;;;;;;31.33;11.33;;;;;;;;;;5002410;28;20374;-65
2022/01/18 08:32:19;;;;;;;33.30;11.30;;;;;;;;;;5006264;28;20946;-65
2022/01/18 08:34:49;;;;;;;33.13;12.27;;;;;;;;;;5005022;28;20200;-66
2022/01/18 08:37:20;;;;;;;28.80;10.57;;;;;;;;;;5004539;28;20195;-65
2022/01/18 08:39:52;;;;;;;33.90;10.37;;;;;;;;;;5004019;28;20278;-66
2022/01/18 08:42:26;;;;;;;30.40;11.03;;;;;;;;;;4991816;28;20215;-68
2022/01/18 08:44:55;;;;;;;31.43;10.70;;;;;;;;;;5004283;28;20202;-68
2022/01/18 08:47:25;;;;;;;30.97;10.57;;;;;;;;;;4980632;28;20195;-69
2022/01/18 08:49:57;;;;;;;28.47;10.00;;;;;;;;;;4998523;28;20206;-70
2022/01/18 08:52:32;;;;;;;21.83;8.90;;;;;;;;;;4982404;28;20254;-68
2022/01/18 08:55:03;;;;;;;26.43;10.50;;;;;;;;;;5001502;28;20277;-68
2022/01/18 08:57:34;;;;;;;25.83;10.20;;;;;;;;;;4992609;28;20233;-66
2022/01/18 09:00:10;;;;;;;27.10;9.83;;;;;;;;;;5004793;28;20243;-66
2022/01/18 09:02:42;;;;;;;23.33;9.50;;;;;;;;;;5002275;28;20199;-66
2022/01/18 09:05:10;;;;;;;25.43;9.23;;;;;;;;;;4985284;28;20269;-71
2022/01/18 09:07:41;;;;;;;26.57;8.87;;;;;;;;;;4996784;28;20215;-67
2022/01/18 09:10:11;;;;;;;19.80;8.30;;;;;;;;;;5004694;28;20219;-67
2022/01/18 09:12:41;;;;;;;18.03;8.07;;;;;;;;;;5020445;28;20227;-68
2022/01/18 09:15:15;;;;;;;20.43;8.83;;;;;;;;;;5009104;28;20298;-66
2022/01/18 09:17:48;;;;;;;16.27;8.00;;;;;;;;;;4997783;28;20249;-68
2022/01/18 09:20:20;;;;;;;19.63;7.73;;;;;;;;;;5000342;28;20216;-67
2022/01/18 09:22:50;;;;;;;17.63;7.13;;;;;;;;;;4969580;28;20229;-67
2022/01/18 09:25:21;;;;;;;17.37;7.80;;;;;;;;;;5011076;28;20300;-66
2022/01/18 09:27:57;;;;;;;14.33;6.50;;;;;;;;;;5023450;28;20598;-67
2022/01/18 09:30:30;;;;;;;13.73;6.43;;;;;;;;;;5023126;28;20310;-64
2022/01/18 09:33:05;;;;;;;15.77;6.07;;;;;;;;;;4998422;28;20219;-66
2022/01/18 09:35:38;;;;;;;17.17;6.30;;;;;;;;;;5024677;28;20229;-67
2022/01/18 09:38:09;;;;;;;19.30;6.50;;;;;;;;;;5011415;28;20210;-67
2022/01/18 09:40:42;;;;;;;13.90;6.23;;;;;;;;;;5025627;28;20608;-66
2022/01/18 09:43:16;;;;;;;10.97;5.33;;;;;;;;;;5020509;28;20307;-66
2022/01/18 09:45:48;;;;;;;14.03;5.67;;;;;;;;;;5012406;28;20477;-66
2022/01/18 09:48:19;;;;;;;9.90;5.50;;;;;;;;;;5022659;28;20250;-67
2022/01/18 09:50:51;;;;;;;13.13;5.50;;;;;;;;;;5023757;28;20256;-66
2022/01/18 09:53:22;;;;;;;14.43;6.10;;;;;;;;;;5025125;28;20246;-66
2022/01/18 09:55:53;;;;;;;11.07;5.40;;;;;;;;;;5025929;28;20209;-66
2022/01/18 09:58:21;;;;;;;11.03;5.30;;;;;;;;;;4998567;28;20210;-62
2022/01/18 10:00:53;;;;;;;10.93;5.50;;;;;;;;;;5036089;28;20199;-66
2022/01/18 10:03:33;;;;;;;10.43;4.40;;;;;;;;;;5028721;28;20564;-66
2022/01/18 10:06:05;;;;;;;10.17;4.20;;;;;;;;;;5026321;28;20229;-65
2022/01/18 10:08:48;;;;;;;10.60;4.30;;;;;;;;;;5043036;28;20218;-64
2022/01/18 10:11:22;;;;;;;16.63;4.47;;;;;;;;;;5033627;28;20268;-65
2022/01/18 10:13:56;;;;;;;10.33;3.47;;;;;;;;;;5029724;28;20195;-66
2022/01/18 10:16:43;;;;;;;12.10;4.23;;;;;;;;;;5027523;28;20288;-65
2022/01/18 10:19:15;;;;;;;7.17;3.57;;;;;;;;;;5025632;28;20235;-63
2022/01/18 10:21:49;;;;;;;9.40;3.70;;;;;;;;;;5029595;28;20210;-64
2022/01/18 10:24:23;;;;;;;8.70;3.43;;;;;;;;;;5027876;28;20253;-64
2022/01/18 10:26:53;;;;;;;4.80;3.10;;;;;;;;;;5008265;28;20325;-64
2022/01/18 10:29:38;;;;;;;6.53;3.17;;;;;;;;;;4998894;28;20607;-65
2022/01/18 10:32:31;;;;;;;7.63;3.37;;;;;;;;;;4984279;28;20269;-64
2022/01/18 10:35:08;;;;;;;6.37;3.50;;;;;;;;;;4990160;28;20192;-66
2022/01/18 10:37:41;;;;;;;5.43;3.10;;;;;;;;;;5001379;28;20226;-65
2022/01/18 10:40:17;;;;;;;6.77;3.00;;;;;;;;;;5005114;28;20735;-65
2022/01/18 10:42:54;;;;;;;5.60;3.00;;;;;;;;;;5003976;28;20727;-64
2022/01/18 10:45:30;;;;;;;4.70;2.90;;;;;;;;;;5007565;28;20724;-68
2022/01/18 10:48:19;;;;;;;5.87;2.87;;;;;;;;;;5006765;28;20227;-65
2022/01/18 10:50:49;;;;;;;4.77;2.73;;;;;;;;;;5007401;28;20195;-64
2022/01/18 10:53:33;;;;;;;6.37;2.93;;;;;;;;;;5001114;28;20825;-62
2022/01/18 10:56:15;;;;;;;5.23;3.00;;;;;;;;;;5006801;28;20262;-64
2022/01/18 10:58:57;;;;;;;4.90;2.90;;;;;;;;;;5003529;28;20200;-64
2022/01/18 11:01:26;;;;;;;5.53;2.70;;;;;;;;;;5005398;28;20215;-64
2022/01/18 11:04:16;;;;;;;5.47;2.60;;;;;;;;;;5006773;28;20231;-64
2022/01/18 11:07:01;;;;;;;5.03;2.90;;;;;;;;;;4993091;28;20218;-65
2022/01/18 11:09:31;;;;;;;6.27;2.43;;;;;;;;;;4992229;28;20215;-64
2022/01/18 11:12:01;;;;;;;4.47;2.60;;;;;;;;;;5008529;28;20223;-65
2022/01/18 11:15:02;;;;;;;5.00;2.60;;;;;;;;;;4987466;28;20648;-65
2022/01/18 11:17:43;;;;;;;5.57;2.73;;;;;;;;;;5005609;28;20206;-64
2022/01/18 11:20:16;;;;;;;5.20;2.70;;;;;;;;;;5004971;28;20211;-64
2022/01/18 11:22:54;;;;;;;6.30;3.20;;;;;;;;;;5007925;28;20211;-64
2022/01/18 11:25:25;;;;;;;5.73;3.07;;;;;;;;;;5001956;28;20247;-64
2022/01/18 11:28:01;;;;;;;7.63;3.37;;;;;;;;;;5008183;28;20192;-65
2022/01/18 11:30:34;;;;;;;6.10;3.00;;;;;;;;;;5002539;28;20648;-63
2022/01/18 11:33:08;;;;;;;5.40;3.07;;;;;;;;;;4989816;28;20579;-64
2022/01/18 11:35:57;;;;;;;7.73;2.83;;;;;;;;;;5001503;28;20227;-64
2022/01/18 11:38:34;;;;;;;6.93;3.27;;;;;;;;;;5007951;28;20204;-63
2022/01/18 11:41:28;;;;;;;5.40;2.63;;;;;;;;;;5003803;28;20253;-64
2022/01/18 11:44:19;;;;;;;5.27;2.80;;;;;;;;;;5006006;28;20645;-64
2022/01/18 11:46:52;;;;;;;7.17;3.33;;;;;;;;;;5021421;28;20730;-64
2022/01/18 11:49:25;;;;;;;4.10;2.37;;;;;;;;;;5009607;28;20215;-63
2022/01/18 11:51:59;;;;;;;5.37;3.00;;;;;;;;;;5005537;28;20207;-63
2022/01/18 11:54:55;;;;;;;4.20;2.40;;;;;;;;;;5015224;28;20196;-63
2022/01/18 11:57:36;;;;;;;4.30;2.90;;;;;;;;;;4994350;28;20204;-65
2022/01/18 12:00:12;;;;;;;4.63;2.60;;;;;;;;;;5009034;28;20210;-63
2022/01/18 12:02:47;;;;;;;4.07;2.70;;;;;;;;;;4986869;28;20546;-63
2022/01/18 12:05:21;;;;;;;4.17;2.60;;;;;;;;;;5005139;28;20215;-63
2022/01/18 12:07:57;;;;;;;3.27;2.40;;;;;;;;;;5001479;28;20282;-63
2022/01/18 12:10:38;;;;;;;4.73;2.67;;;;;;;;;;5004618;28;20683;-64
2022/01/18 12:13:12;;;;;;;6.60;2.83;;;;;;;;;;5000632;28;20472;-63
2022/01/18 12:15:43;;;;;;;4.03;2.40;;;;;;;;;;5002143;28;20672;-64
2022/01/18 12:18:17;;;;;;;3.43;2.30;;;;;;;;;;5007157;28;20230;-64
2022/01/18 12:20:46;;;;;;;4.23;2.17;;;;;;;;;;5017975;28;20211;-63
2022/01/18 12:23:25;;;;;;;3.43;2.30;;;;;;;;;;5010767;28;20196;-64
2022/01/18 12:26:01;;;;;;;4.03;2.30;;;;;;;;;;5019073;28;20238;-64
2022/01/18 12:31:53;;;;;;;4.43;2.30;;;;;;;;;;5030461;28;20237;-64
2022/01/18 12:34:40;;;;;;;5.13;2.07;;;;;;;;;;5032111;28;20655;-63
2022/01/18 12:37:12;;;;;;;2.90;1.87;;;;;;;;;;5032637;28;20210;-65
2022/01/18 12:39:54;;;;;;;3.30;2.00;;;;;;;;;;5022631;28;20264;-64
2022/01/18 12:45:20;;;;;;;4.80;2.30;;;;;;;;;;5034351;28;20195;-64
2022/01/18 12:48:00;;;;;;;4.10;2.43;;;;;;;;;;5012779;28;20206;-63
2022/01/18 12:50:35;;;;;;;8.03;2.77;;;;;;;;;;5027745;28;20233;-64
2022/01/18 12:53:05;;;;;;;3.83;2.60;;;;;;;;;;5026915;28;20225;-63
2022/01/18 12:55:45;;;;;;;3.97;2.53;;;;;;;;;;5024076;28;20221;-63
2022/01/18 12:58:35;;;;;;;4.63;2.10;;;;;;;;;;5031312;28;20206;-64
2022/01/18 13:01:16;;;;;;;3.17;2.00;;;;;;;;;;5031040;28;20190;-65
2022/01/18 13:03:51;;;;;;;3.77;2.00;;;;;;;;;;5007546;28;20199;-63
2022/01/18 13:06:26;;;;;;;2.53;1.60;;;;;;;;;;5005995;28;20221;-65
2022/01/18 13:09:11;;;;;;;3.23;2.10;;;;;;;;;;5020613;28;20206;-65
2022/01/18 13:11:42;;;;;;;3.10;2.10;;;;;;;;;;5023900;28;20198;-66
2022/01/18 13:14:15;;;;;;;3.10;1.70;;;;;;;;;;5013628;28;20609;-67
2022/01/18 13:25:15;;;;;;;3.63;2.20;;;;;;;;;;5019525;28;20235;-66
2022/01/18 13:27:51;;;;;;;3.70;2.30;;;;;;;;;;4995172;28;20204;-67
2022/01/18 13:30:39;;;;;;;3.03;1.97;;;;;;;;;;4975448;28;20227;-68
2022/01/18 13:33:14;;;;;;;2.93;1.77;;;;;;;;;;5009167;28;20293;-66
2022/01/18 13:35:49;;;;;;;2.80;2.13;;;;;;;;;;5005159;28;20200;-67
2022/01/18 13:38:17;;;;;;;2.97;2.07;;;;;;;;;;5001661;28;20769;-67
2022/01/18 13:40:48;;;;;;;3.30;2.10;;;;;;;;;;5003618;28;20207;-65
2022/01/18 13:43:19;;;;;;;2.73;1.90;;;;;;;;;;4992768;28;20223;-65
2022/01/18 13:46:07;;;;;;;3.17;1.70;;;;;;;;;;5003284;28;20301;-65
2022/01/18 13:48:39;;;;;;;3.03;2.10;;;;;;;;;;5006647;28;20203;-64
2022/01/18 13:51:19;;;;;;;3.57;2.20;;;;;;;;;;5004018;28;20226;-62
2022/01/18 13:54:00;;;;;;;3.50;2.43;;;;;;;;;;4986428;28;20710;-65
2022/01/18 13:56:29;;;;;;;3.47;2.40;;;;;;;;;;4987851;28;20204;-64
2022/01/18 13:59:05;;;;;;;3.80;2.40;;;;;;;;;;5008551;28;20203;-64
2022/01/18 14:01:35;;;;;;;6.30;2.30;;;;;;;;;;4988189;28;20203;-67
2022/01/18 14:04:19;;;;;;;5.37;2.60;;;;;;;;;;5006323;28;20744;-66
2022/01/18 14:06:56;;;;;;;6.13;2.33;;;;;;;;;;5003395;28;20249;-64
2022/01/18 14:09:26;;;;;;;4.60;1.97;;;;;;;;;;5005773;28;20202;-64
2022/01/18 14:11:56;;;;;;;6.13;2.00;;;;;;;;;;5002649;28;20209;-66
2022/01/18 14:14:46;;;;;;;2.83;1.97;;;;;;;;;;5006612;28;20231;-65
2022/01/18 14:17:19;;;;;;;3.00;1.70;;;;;;;;;;5006326;28;20223;-68
2022/01/18 14:20:00;;;;;;;4.43;2.10;;;;;;;;;;5005042;28;20691;-66
2022/01/18 14:22:41;;;;;;;4.23;2.00;;;;;;;;;;5002375;28;20208;-66
2022/01/18 14:25:18;;;;;;;2.70;1.83;;;;;;;;;;4991603;28;20265;-65
2022/01/18 14:27:47;;;;;;;2.10;1.50;;;;;;;;;;5005155;28;20595;-65
2022/01/18 14:30:24;;;;;;;4.10;1.80;;;;;;;;;;4996190;28;20310;-63
2022/01/18 14:33:18;;;;;;;3.60;2.10;;;;;;;;;;4986588;28;20234;-65
2022/01/18 14:35:54;;;;;;;4.77;1.87;;;;;;;;;;5005093;28;20192;-67
2022/01/18 14:38:30;;;;;;;4.37;1.67;;;;;;;;;;4996603;28;20207;-67
2022/01/18 14:41:17;;;;;;;4.50;1.90;;;;;;;;;;5009394;28;20210;-66
2022/01/18 14:43:53;;;;;;;3.30;1.60;;;;;;;;;;5006836;28;20686;-66
2022/01/18 14:46:47;;;;;;;3.20;1.90;;;;;;;;;;5007689;28;20226;-65
2022/01/18 14:49:20;;;;;;;2.47;1.30;;;;;;;;;;5008782;28;20211;-66
2022/01/18 14:51:47;;;;;;;4.43;1.57;;;;;;;;;;5007519;28;20211;-65
2022/01/18 14:54:21;;;;;;;3.73;1.70;;;;;;;;;;5005018;28;20953;-65
2022/01/18 14:56:52;;;;;;;2.77;1.60;;;;;;;;;;5014428;28;20922;-65
2022/01/18 14:59:25;;;;;;;2.17;1.53;;;;;;;;;;5009063;28;20204;-67
2022/01/18 15:01:58;;;;;;;3.33;2.00;;;;;;;;;;5010595;28;20204;-64
2022/01/18 15:04:30;;;;;;;3.13;1.80;;;;;;;;;;4998299;28;20581;-64
2022/01/18 15:07:00;;;;;;;2.80;1.60;;;;;;;;;;5005356;28;20237;-64
2022/01/18 15:09:30;;;;;;;2.30;1.43;;;;;;;;;;5005373;28;20215;-64
2022/01/18 15:12:02;;;;;;;3.63;1.73;;;;;;;;;;4993960;28;20233;-66
2022/01/18 15:14:33;;;;;;;3.93;1.70;;;;;;;;;;4991353;28;20224;-67
2022/01/18 15:17:08;;;;;;;3.10;1.67;;;;;;;;;;5006488;28;20223;-66
2022/01/18 15:19:40;;;;;;;3.27;1.90;;;;;;;;;;5003782;28;20222;-64
2022/01/18 15:22:27;;;;;;;2.63;1.87;;;;;;;;;;5015405;28;20192;-66
2022/01/18 15:25:01;;;;;;;2.17;1.53;;;;;;;;;;5010118;28;20301;-66
2022/01/18 15:27:33;;;;;;;3.33;1.70;;;;;;;;;;5009958;28;20243;-65
2022/01/18 15:30:08;;;;;;;4.93;2.30;;;;;;;;;;5025331;28;20219;-65
2022/01/18 15:32:42;;;;;;;4.57;1.77;;;;;;;;;;5026628;28;20226;-66
2022/01/18 15:35:13;;;;;;;2.93;1.87;;;;;;;;;;5027377;28;20203;-66
2022/01/18 15:37:56;;;;;;;3.50;2.00;;;;;;;;;;5013779;28;20676;-66
2022/01/18 15:40:28;;;;;;;2.17;1.57;;;;;;;;;;5026587;28;20202;-65
2022/01/18 15:42:58;;;;;;;3.33;1.60;;;;;;;;;;5010840;28;20588;-64
2022/01/18 15:45:30;;;;;;;2.43;1.80;;;;;;;;;;5034195;28;20196;-65
2022/01/18 15:48:02;;;;;;;3.27;1.87;;;;;;;;;;5027987;28;20190;-64
2022/01/18 15:50:34;;;;;;;2.47;1.73;;;;;;;;;;5034965;28;20546;-65
2022/01/18 15:53:05;;;;;;;5.03;2.40;;;;;;;;;;5010131;28;20203;-66
2022/01/18 15:55:38;;;;;;;4.03;2.30;;;;;;;;;;5024713;28;20520;-64
2022/01/18 15:58:19;;;;;;;4.43;2.20;;;;;;;;;;5023939;28;20249;-64
2022/01/18 16:01:02;;;;;;;6.73;3.10;;;;;;;;;;5030545;28;20203;-64
2022/01/18 16:03:33;;;;;;;3.60;2.40;;;;;;;;;;5019233;28;20210;-64
2022/01/18 16:06:04;;;;;;;4.67;2.33;;;;;;;;;;5025874;28;20218;-65
2022/01/18 16:08:36;;;;;;;4.13;2.20;;;;;;;;;;5029751;28;20222;-64
2022/01/18 16:11:12;;;;;;;7.00;2.50;;;;;;;;;;5036134;28;20222;-65
2022/01/18 16:13:48;;;;;;;5.00;2.30;;;;;;;;;;5024548;28;20217;-65
2022/01/18 16:16:29;;;;;;;3.77;2.07;;;;;;;;;;5029655;28;20260;-65
2022/01/18 16:19:01;;;;;;;4.93;2.53;;;;;;;;;;5018413;28;20207;-65
2022/01/18 16:21:36;;;;;;;6.23;3.00;;;;;;;;;;5011564;28;20292;-65
2022/01/18 16:24:09;;;;;;;8.17;3.23;;;;;;;;;;5017026;28;20234;-65
2022/01/18 16:26:41;;;;;;;5.80;3.47;;;;;;;;;;5018912;28;20253;-65
2022/01/18 16:29:11;;;;;;;5.17;3.00;;;;;;;;;;5002563;28;20222;-66
2022/01/18 16:31:42;;;;;;;7.23;3.77;;;;;;;;;;5017170;28;20211;-65
2022/01/18 16:34:16;;;;;;;9.87;4.00;;;;;;;;;;5019631;28;20254;-65
2022/01/18 16:36:44;;;;;;;7.13;3.50;;;;;;;;;;5007457;28;20680;-65
2022/01/18 16:39:14;;;;;;;6.17;3.53;;;;;;;;;;5025289;28;20237;-65
2022/01/18 16:41:47;;;;;;;7.40;3.67;;;;;;;;;;5020905;28;20226;-65